sensor_id;sensor_type;location;lat;lon;timestamp;P1;durP1;ratioP1;P2;durP2;ratioP2
45893;SDS011;31603;51.148;16.932;2023-05-07T00:46:08;9.65;;;6.43;;
45893;SDS011;31603;51.148;16.932;2023-05-07T00:48:35;8.98;;;5.88;;
45893;SDS011;31603;51.148;16.932;2023-05-07T00:51:01;7.97;;;5.60;;
45893;SDS011;31603;51.148;16.932;2023-05-07T00:53:27;9.13;;;5.82;;
45893;SDS011;31603;51.148;16.932;2023-05-07T00:55:54;8.50;;;5.60;;
45893;SDS011;31603;51.148;16.932;2023-05-07T00:58:21;8.48;;;6.32;;
45893;SDS011;31603;51.148;16.932;2023-05-07T01:00:47;10.57;;;6.40;;
45893;SDS011;31603;51.148;16.932;2023-05-07T01:03:15;10.15;;;6.90;;
45893;SDS011;31603;51.148;16.932;2023-05-07T01:05:41;10.90;;;7.25;;
45893;SDS011;31603;51.148;16.932;2023-05-07T01:08:08;10.90;;;7.40;;
45893;SDS011;31603;51.148;16.932;2023-05-07T01:10:35;9.50;;;6.88;;
45893;SDS011;31603;51.148;16.932;2023-05-07T01:13:01;12.20;;;7.50;;
45893;SDS011;31603;51.148;16.932;2023-05-07T01:15:28;9.77;;;7.25;;
45893;SDS011;31603;51.148;16.932;2023-05-07T01:17:54;9.75;;;7.13;;
45893;SDS011;31603;51.148;16.932;2023-05-07T01:20:23;9.73;;;6.90;;
45893;SDS011;31603;51.148;16.932;2023-05-07T01:22:51;9.32;;;6.18;;
45893;SDS011;31603;51.148;16.932;2023-05-07T01:25:18;9.07;;;7.20;;
45893;SDS011;31603;51.148;16.932;2023-05-07T01:27:44;7.85;;;5.68;;
45893;SDS011;31603;51.148;16.932;2023-05-07T01:30:11;9.52;;;6.80;;
45893;SDS011;31603;51.148;16.932;2023-05-07T01:32:38;10.75;;;7.47;;
45893;SDS011;31603;51.148;16.932;2023-05-07T01:35:07;10.77;;;7.75;;
45893;SDS011;31603;51.148;16.932;2023-05-07T01:37:35;7.97;;;7.03;;
45893;SDS011;31603;51.148;16.932;2023-05-07T01:40:03;8.50;;;6.97;;
45893;SDS011;31603;51.148;16.932;2023-05-07T01:42:30;7.63;;;6.50;;
45893;SDS011;31603;51.148;16.932;2023-05-07T01:44:57;10.00;;;6.60;;
45893;SDS011;31603;51.148;16.932;2023-05-07T01:47:23;12.85;;;7.03;;
45893;SDS011;31603;51.148;16.932;2023-05-07T01:49:50;9.70;;;7.05;;
45893;SDS011;31603;51.148;16.932;2023-05-07T01:52:17;10.20;;;7.32;;
45893;SDS011;31603;51.148;16.932;2023-05-07T01:54:43;10.30;;;6.85;;
45893;SDS011;31603;51.148;16.932;2023-05-07T01:57:11;11.30;;;7.05;;
45893;SDS011;31603;51.148;16.932;2023-05-07T01:59:37;11.63;;;6.43;;
45893;SDS011;31603;51.148;16.932;2023-05-07T02:02:03;11.00;;;6.78;;
45893;SDS011;31603;51.148;16.932;2023-05-07T02:04:29;8.30;;;6.53;;
45893;SDS011;31603;51.148;16.932;2023-05-07T02:06:55;9.43;;;6.07;;
45893;SDS011;31603;51.148;16.932;2023-05-07T02:09:22;8.75;;;6.53;;
45893;SDS011;31603;51.148;16.932;2023-05-07T02:11:48;8.65;;;6.35;;
45893;SDS011;31603;51.148;16.932;2023-05-07T02:14:16;8.43;;;6.57;;
45893;SDS011;31603;51.148;16.932;2023-05-07T02:16:42;9.48;;;6.25;;
45893;SDS011;31603;51.148;16.932;2023-05-07T02:19:08;8.32;;;5.90;;
45893;SDS011;31603;51.148;16.932;2023-05-07T02:21:34;7.60;;;5.75;;
45893;SDS011;31603;51.148;16.932;2023-05-07T02:24:01;12.27;;;6.72;;
45893;SDS011;31603;51.148;16.932;2023-05-07T02:26:27;9.52;;;7.40;;
45893;SDS011;31603;51.148;16.932;2023-05-07T02:28:53;9.73;;;6.15;;
45893;SDS011;31603;51.148;16.932;2023-05-07T02:31:21;10.90;;;6.80;;
45893;SDS011;31603;51.148;16.932;2023-05-07T02:33:47;10.13;;;6.78;;
45893;SDS011;31603;51.148;16.932;2023-05-07T02:36:13;10.35;;;7.90;;
45893;SDS011;31603;51.148;16.932;2023-05-07T02:38:39;9.00;;;6.53;;
45893;SDS011;31603;51.148;16.932;2023-05-07T02:41:05;11.70;;;6.82;;
45893;SDS011;31603;51.148;16.932;2023-05-07T02:43:32;10.95;;;8.20;;
45893;SDS011;31603;51.148;16.932;2023-05-07T02:46:01;11.75;;;7.78;;
45893;SDS011;31603;51.148;16.932;2023-05-07T02:48:30;11.05;;;7.55;;
45893;SDS011;31603;51.148;16.932;2023-05-07T02:50:56;13.50;;;8.27;;
45893;SDS011;31603;51.148;16.932;2023-05-07T02:53:22;11.65;;;8.73;;
45893;SDS011;31603;51.148;16.932;2023-05-07T02:55:50;11.07;;;7.43;;
45893;SDS011;31603;51.148;16.932;2023-05-07T02:58:17;10.18;;;7.60;;
45893;SDS011;31603;51.148;16.932;2023-05-07T03:00:43;12.38;;;8.20;;
45893;SDS011;31603;51.148;16.932;2023-05-07T03:03:09;11.48;;;7.93;;
45893;SDS011;31603;51.148;16.932;2023-05-07T03:05:37;11.55;;;7.90;;
45893;SDS011;31603;51.148;16.932;2023-05-07T03:08:03;13.45;;;8.23;;
45893;SDS011;31603;51.148;16.932;2023-05-07T03:10:29;11.15;;;7.80;;
45893;SDS011;31603;51.148;16.932;2023-05-07T03:12:56;13.73;;;8.07;;
45893;SDS011;31603;51.148;16.932;2023-05-07T03:15:22;12.57;;;8.10;;
45893;SDS011;31603;51.148;16.932;2023-05-07T03:17:48;10.32;;;8.38;;
45893;SDS011;31603;51.148;16.932;2023-05-07T03:20:14;9.93;;;7.28;;
45893;SDS011;31603;51.148;16.932;2023-05-07T03:22:42;13.02;;;8.30;;
45893;SDS011;31603;51.148;16.932;2023-05-07T03:25:09;11.23;;;7.53;;
45893;SDS011;31603;51.148;16.932;2023-05-07T03:27:35;11.35;;;6.88;;
45893;SDS011;31603;51.148;16.932;2023-05-07T03:30:02;9.68;;;7.55;;
45893;SDS011;31603;51.148;16.932;2023-05-07T03:32:28;10.75;;;7.75;;
45893;SDS011;31603;51.148;16.932;2023-05-07T03:34:54;10.55;;;7.53;;
45893;SDS011;31603;51.148;16.932;2023-05-07T03:37:21;13.35;;;7.63;;
45893;SDS011;31603;51.148;16.932;2023-05-07T03:39:48;10.85;;;7.70;;
45893;SDS011;31603;51.148;16.932;2023-05-07T03:42:15;11.15;;;7.68;;
45893;SDS011;31603;51.148;16.932;2023-05-07T03:44:41;10.27;;;7.63;;
45893;SDS011;31603;51.148;16.932;2023-05-07T03:47:07;13.07;;;8.85;;
45893;SDS011;31603;51.148;16.932;2023-05-07T03:49:35;13.40;;;8.60;;
45893;SDS011;31603;51.148;16.932;2023-05-07T03:52:01;10.02;;;7.68;;
45893;SDS011;31603;51.148;16.932;2023-05-07T03:54:27;12.38;;;9.07;;
45893;SDS011;31603;51.148;16.932;2023-05-07T03:56:55;9.45;;;7.95;;
45893;SDS011;31603;51.148;16.932;2023-05-07T03:59:21;10.88;;;8.15;;
45893;SDS011;31603;51.148;16.932;2023-05-07T04:01:47;9.90;;;6.75;;
45893;SDS011;31603;51.148;16.932;2023-05-07T04:04:14;8.27;;;6.75;;
45893;SDS011;31603;51.148;16.932;2023-05-07T04:06:41;10.57;;;7.45;;
45893;SDS011;31603;51.148;16.932;2023-05-07T04:09:07;9.10;;;7.00;;
45893;SDS011;31603;51.148;16.932;2023-05-07T04:11:33;11.15;;;8.00;;
45893;SDS011;31603;51.148;16.932;2023-05-07T04:14:01;16.38;;;10.00;;
45893;SDS011;31603;51.148;16.932;2023-05-07T04:16:27;14.32;;;10.02;;
45893;SDS011;31603;51.148;16.932;2023-05-07T04:18:53;14.93;;;10.98;;
45893;SDS011;31603;51.148;16.932;2023-05-07T04:21:20;16.83;;;12.52;;
45893;SDS011;31603;51.148;16.932;2023-05-07T04:23:47;17.13;;;12.02;;
45893;SDS011;31603;51.148;16.932;2023-05-07T04:26:13;16.58;;;12.43;;
45893;SDS011;31603;51.148;16.932;2023-05-07T04:28:41;16.75;;;11.95;;
45893;SDS011;31603;51.148;16.932;2023-05-07T04:31:09;16.40;;;10.50;;
45893;SDS011;31603;51.148;16.932;2023-05-07T04:33:35;15.10;;;12.05;;
45893;SDS011;31603;51.148;16.932;2023-05-07T04:36:01;14.10;;;11.25;;
45893;SDS011;31603;51.148;16.932;2023-05-07T04:38:28;13.13;;;10.35;;
45893;SDS011;31603;51.148;16.932;2023-05-07T04:40:55;12.48;;;9.80;;
45893;SDS011;31603;51.148;16.932;2023-05-07T04:43:22;12.20;;;9.40;;
45893;SDS011;31603;51.148;16.932;2023-05-07T04:45:49;13.32;;;8.82;;
45893;SDS011;31603;51.148;16.932;2023-05-07T04:48:17;13.73;;;9.02;;
45893;SDS011;31603;51.148;16.932;2023-05-07T04:50:44;11.25;;;9.02;;
45893;SDS011;31603;51.148;16.932;2023-05-07T04:53:10;13.20;;;8.20;;
45893;SDS011;31603;51.148;16.932;2023-05-07T04:55:36;12.40;;;8.27;;
45893;SDS011;31603;51.148;16.932;2023-05-07T04:58:02;8.85;;;7.05;;
45893;SDS011;31603;51.148;16.932;2023-05-07T05:00:29;9.95;;;7.60;;
45893;SDS011;31603;51.148;16.932;2023-05-07T05:02:56;11.00;;;7.68;;
45893;SDS011;31603;51.148;16.932;2023-05-07T05:05:23;8.35;;;6.90;;
45893;SDS011;31603;51.148;16.932;2023-05-07T05:07:49;8.05;;;5.95;;
45893;SDS011;31603;51.148;16.932;2023-05-07T05:10:16;7.88;;;5.55;;
45893;SDS011;31603;51.148;16.932;2023-05-07T05:12:43;7.25;;;5.55;;
45893;SDS011;31603;51.148;16.932;2023-05-07T05:15:10;5.97;;;5.18;;
45893;SDS011;31603;51.148;16.932;2023-05-07T05:17:37;9.05;;;5.43;;
45893;SDS011;31603;51.148;16.932;2023-05-07T05:20:04;6.47;;;5.38;;
45893;SDS011;31603;51.148;16.932;2023-05-07T05:22:32;7.68;;;5.00;;
45893;SDS011;31603;51.148;16.932;2023-05-07T05:24:58;7.05;;;5.10;;
45893;SDS011;31603;51.148;16.932;2023-05-07T05:27:25;6.30;;;5.38;;
45893;SDS011;31603;51.148;16.932;2023-05-07T05:29:51;6.57;;;5.45;;
45893;SDS011;31603;51.148;16.932;2023-05-07T05:32:17;7.68;;;5.57;;
45893;SDS011;31603;51.148;16.932;2023-05-07T05:34:43;10.30;;;6.13;;
45893;SDS011;31603;51.148;16.932;2023-05-07T05:37:10;6.80;;;5.22;;
45893;SDS011;31603;51.148;16.932;2023-05-07T05:39:38;8.45;;;5.97;;
45893;SDS011;31603;51.148;16.932;2023-05-07T05:42:04;6.75;;;5.35;;
45893;SDS011;31603;51.148;16.932;2023-05-07T05:44:30;8.50;;;5.88;;
45893;SDS011;31603;51.148;16.932;2023-05-07T05:46:56;7.07;;;5.28;;
45893;SDS011;31603;51.148;16.932;2023-05-07T05:49:24;8.88;;;5.25;;
45893;SDS011;31603;51.148;16.932;2023-05-07T05:51:50;10.00;;;5.05;;
45893;SDS011;31603;51.148;16.932;2023-05-07T05:54:17;6.80;;;4.90;;
45893;SDS011;31603;51.148;16.932;2023-05-07T05:56:44;6.65;;;5.25;;
45893;SDS011;31603;51.148;16.932;2023-05-07T05:59:10;6.53;;;5.03;;
45893;SDS011;31603;51.148;16.932;2023-05-07T06:01:37;7.78;;;5.05;;
45893;SDS011;31603;51.148;16.932;2023-05-07T06:04:03;6.70;;;4.68;;
45893;SDS011;31603;51.148;16.932;2023-05-07T06:06:29;8.23;;;5.43;;
45893;SDS011;31603;51.148;16.932;2023-05-07T06:08:56;9.38;;;5.80;;
45893;SDS011;31603;51.148;16.932;2023-05-07T06:11:22;8.07;;;5.25;;
45893;SDS011;31603;51.148;16.932;2023-05-07T06:13:50;5.57;;;4.53;;
45893;SDS011;31603;51.148;16.932;2023-05-07T06:16:16;5.88;;;4.82;;
45893;SDS011;31603;51.148;16.932;2023-05-07T06:18:42;6.50;;;4.43;;
45893;SDS011;31603;51.148;16.932;2023-05-07T06:21:10;4.90;;;4.07;;
45893;SDS011;31603;51.148;16.932;2023-05-07T06:23:36;5.63;;;4.15;;
45893;SDS011;31603;51.148;16.932;2023-05-07T06:26:02;5.28;;;4.35;;
45893;SDS011;31603;51.148;16.932;2023-05-07T06:28:29;4.88;;;4.10;;
45893;SDS011;31603;51.148;16.932;2023-05-07T06:31:11;5.40;;;4.30;;
45893;SDS011;31603;51.148;16.932;2023-05-07T06:33:37;5.72;;;4.22;;
45893;SDS011;31603;51.148;16.932;2023-05-07T06:36:04;6.28;;;3.53;;
45893;SDS011;31603;51.148;16.932;2023-05-07T06:38:31;6.57;;;4.80;;
45893;SDS011;31603;51.148;16.932;2023-05-07T06:40:57;5.40;;;4.25;;
45893;SDS011;31603;51.148;16.932;2023-05-07T06:43:23;5.47;;;4.30;;
45893;SDS011;31603;51.148;16.932;2023-05-07T06:45:49;7.45;;;4.75;;
45893;SDS011;31603;51.148;16.932;2023-05-07T06:48:17;6.88;;;5.20;;
45893;SDS011;31603;51.148;16.932;2023-05-07T06:50:43;6.90;;;5.55;;
45893;SDS011;31603;51.148;16.932;2023-05-07T06:53:10;10.63;;;8.82;;
45893;SDS011;31603;51.148;16.932;2023-05-07T06:55:36;10.70;;;8.02;;
45893;SDS011;31603;51.148;16.932;2023-05-07T06:58:03;7.55;;;5.53;;
45893;SDS011;31603;51.148;16.932;2023-05-07T07:00:29;6.30;;;5.28;;
45893;SDS011;31603;51.148;16.932;2023-05-07T07:02:56;6.45;;;4.50;;
45893;SDS011;31603;51.148;16.932;2023-05-07T07:05:23;6.88;;;4.60;;
45893;SDS011;31603;51.148;16.932;2023-05-07T07:07:49;8.95;;;5.70;;
45893;SDS011;31603;51.148;16.932;2023-05-07T07:10:17;5.97;;;3.72;;
45893;SDS011;31603;51.148;16.932;2023-05-07T07:12:44;5.03;;;4.53;;
45893;SDS011;31603;51.148;16.932;2023-05-07T07:15:10;6.18;;;4.28;;
45893;SDS011;31603;51.148;16.932;2023-05-07T07:17:36;5.63;;;4.13;;
45893;SDS011;31603;51.148;16.932;2023-05-07T07:20:03;4.07;;;3.20;;
45893;SDS011;31603;51.148;16.932;2023-05-07T07:22:33;4.93;;;3.97;;
45893;SDS011;31603;51.148;16.932;2023-05-07T07:24:59;4.30;;;3.67;;
45893;SDS011;31603;51.148;16.932;2023-05-07T07:27:25;4.38;;;3.55;;
45893;SDS011;31603;51.148;16.932;2023-05-07T07:29:51;4.18;;;3.38;;
45893;SDS011;31603;51.148;16.932;2023-05-07T07:32:18;4.50;;;3.58;;
45893;SDS011;31603;51.148;16.932;2023-05-07T07:34:44;3.70;;;2.88;;
45893;SDS011;31603;51.148;16.932;2023-05-07T07:37:10;3.95;;;3.33;;
45893;SDS011;31603;51.148;16.932;2023-05-07T07:39:38;4.38;;;2.85;;
45893;SDS011;31603;51.148;16.932;2023-05-07T07:42:04;3.55;;;2.55;;
45893;SDS011;31603;51.148;16.932;2023-05-07T07:44:30;3.25;;;2.95;;
45893;SDS011;31603;51.148;16.932;2023-05-07T07:46:56;3.80;;;3.03;;
45893;SDS011;31603;51.148;16.932;2023-05-07T07:49:23;4.57;;;3.03;;
45893;SDS011;31603;51.148;16.932;2023-05-07T07:51:49;4.30;;;3.40;;
45893;SDS011;31603;51.148;16.932;2023-05-07T07:54:16;3.25;;;2.95;;
45893;SDS011;31603;51.148;16.932;2023-05-07T07:56:43;3.97;;;3.58;;
45893;SDS011;31603;51.148;16.932;2023-05-07T07:59:09;5.30;;;4.00;;
45893;SDS011;31603;51.148;16.932;2023-05-07T08:01:36;6.97;;;4.72;;
45893;SDS011;31603;51.148;16.932;2023-05-07T08:04:02;8.48;;;6.15;;
45893;SDS011;31603;51.148;16.932;2023-05-07T08:06:30;5.07;;;4.45;;
45893;SDS011;31603;51.148;16.932;2023-05-07T08:08:56;9.35;;;5.53;;
45893;SDS011;31603;51.148;16.932;2023-05-07T08:11:22;7.05;;;5.35;;
45893;SDS011;31603;51.148;16.932;2023-05-07T08:13:50;6.10;;;4.50;;
45893;SDS011;31603;51.148;16.932;2023-05-07T08:16:16;6.00;;;4.43;;
45893;SDS011;31603;51.148;16.932;2023-05-07T08:18:43;4.95;;;4.35;;
45893;SDS011;31603;51.148;16.932;2023-05-07T08:21:09;6.07;;;4.68;;
45893;SDS011;31603;51.148;16.932;2023-05-07T08:23:35;5.68;;;4.22;;
45893;SDS011;31603;51.148;16.932;2023-05-07T08:26:02;6.13;;;4.07;;
45893;SDS011;31603;51.148;16.932;2023-05-07T08:28:28;6.35;;;5.00;;
45893;SDS011;31603;51.148;16.932;2023-05-07T08:30:56;7.07;;;5.55;;
45893;SDS011;31603;51.148;16.932;2023-05-07T08:33:24;7.85;;;5.80;;
45893;SDS011;31603;51.148;16.932;2023-05-07T08:35:51;7.60;;;5.32;;
45893;SDS011;31603;51.148;16.932;2023-05-07T08:38:17;7.60;;;5.28;;
45893;SDS011;31603;51.148;16.932;2023-05-07T08:40:43;8.70;;;6.32;;
45893;SDS011;31603;51.148;16.932;2023-05-07T08:43:10;7.60;;;5.05;;
45893;SDS011;31603;51.148;16.932;2023-05-07T08:45:39;8.48;;;5.80;;
45893;SDS011;31603;51.148;16.932;2023-05-07T08:48:08;9.55;;;5.88;;
45893;SDS011;31603;51.148;16.932;2023-05-07T08:50:35;7.07;;;5.50;;
45893;SDS011;31603;51.148;16.932;2023-05-07T08:53:02;8.65;;;6.15;;
45893;SDS011;31603;51.148;16.932;2023-05-07T08:55:28;9.77;;;6.28;;
45893;SDS011;31603;51.148;16.932;2023-05-07T08:57:54;8.95;;;5.72;;
45893;SDS011;31603;51.148;16.932;2023-05-07T09:00:21;7.25;;;5.22;;
45893;SDS011;31603;51.148;16.932;2023-05-07T09:02:47;7.85;;;6.20;;
45893;SDS011;31603;51.148;16.932;2023-05-07T09:05:15;9.18;;;6.13;;
45893;SDS011;31603;51.148;16.932;2023-05-07T09:07:41;9.00;;;6.28;;
45893;SDS011;31603;51.148;16.932;2023-05-07T09:10:08;9.90;;;6.20;;
45893;SDS011;31603;51.148;16.932;2023-05-07T09:12:34;11.40;;;5.88;;
45893;SDS011;31603;51.148;16.932;2023-05-07T09:15:01;7.97;;;6.28;;
45893;SDS011;31603;51.148;16.932;2023-05-07T09:17:28;10.25;;;6.53;;
45893;SDS011;31603;51.148;16.932;2023-05-07T09:19:54;10.43;;;6.80;;
45893;SDS011;31603;51.148;16.932;2023-05-07T09:22:22;8.95;;;6.32;;
45893;SDS011;31603;51.148;16.932;2023-05-07T09:24:48;7.20;;;6.00;;
45893;SDS011;31603;51.148;16.932;2023-05-07T09:27:15;8.20;;;5.47;;
45893;SDS011;31603;51.148;16.932;2023-05-07T09:29:41;7.15;;;5.60;;
45893;SDS011;31603;51.148;16.932;2023-05-07T09:32:07;7.93;;;5.40;;
45893;SDS011;31603;51.148;16.932;2023-05-07T09:34:34;7.75;;;5.70;;
45893;SDS011;31603;51.148;16.932;2023-05-07T09:37:01;7.07;;;5.57;;
45893;SDS011;31603;51.148;16.932;2023-05-07T09:39:38;7.88;;;5.85;;
45893;SDS011;31603;51.148;16.932;2023-05-07T09:42:05;8.80;;;5.65;;
45893;SDS011;31603;51.148;16.932;2023-05-07T09:44:31;7.72;;;5.70;;
45893;SDS011;31603;51.148;16.932;2023-05-07T09:46:57;7.38;;;6.10;;
45893;SDS011;31603;51.148;16.932;2023-05-07T09:49:25;9.23;;;5.43;;
45893;SDS011;31603;51.148;16.932;2023-05-07T09:51:54;6.63;;;5.40;;
45893;SDS011;31603;51.148;16.932;2023-05-07T09:54:21;6.88;;;5.57;;
45893;SDS011;31603;51.148;16.932;2023-05-07T09:56:49;9.55;;;4.97;;
45893;SDS011;31603;51.148;16.932;2023-05-07T09:59:16;6.40;;;5.10;;
45893;SDS011;31603;51.148;16.932;2023-05-07T10:01:42;6.82;;;5.47;;
45893;SDS011;31603;51.148;16.932;2023-05-07T10:04:09;8.68;;;6.03;;
45893;SDS011;31603;51.148;16.932;2023-05-07T10:06:36;6.25;;;5.03;;
45893;SDS011;31603;51.148;16.932;2023-05-07T10:09:02;7.85;;;6.05;;
45893;SDS011;31603;51.148;16.932;2023-05-07T10:11:30;8.23;;;5.63;;
45893;SDS011;31603;51.148;16.932;2023-05-07T10:13:59;10.85;;;8.05;;
45893;SDS011;31603;51.148;16.932;2023-05-07T10:16:27;8.50;;;6.13;;
45893;SDS011;31603;51.148;16.932;2023-05-07T10:18:53;9.68;;;6.18;;
45893;SDS011;31603;51.148;16.932;2023-05-07T10:21:21;9.48;;;5.82;;
45893;SDS011;31603;51.148;16.932;2023-05-07T10:23:49;7.00;;;4.93;;
45893;SDS011;31603;51.148;16.932;2023-05-07T10:26:15;6.03;;;4.53;;
45893;SDS011;31603;51.148;16.932;2023-05-07T10:28:44;7.90;;;5.55;;
45893;SDS011;31603;51.148;16.932;2023-05-07T10:31:18;6.80;;;5.35;;
45893;SDS011;31603;51.148;16.932;2023-05-07T10:33:49;8.02;;;5.32;;
45893;SDS011;31603;51.148;16.932;2023-05-07T10:36:16;6.88;;;5.22;;
45893;SDS011;31603;51.148;16.932;2023-05-07T10:38:43;5.78;;;4.72;;
45893;SDS011;31603;51.148;16.932;2023-05-07T10:41:09;5.43;;;4.03;;
45893;SDS011;31603;51.148;16.932;2023-05-07T10:43:39;6.78;;;4.63;;
45893;SDS011;31603;51.148;16.932;2023-05-07T10:46:09;6.00;;;4.50;;
45893;SDS011;31603;51.148;16.932;2023-05-07T10:48:49;4.95;;;4.00;;
45893;SDS011;31603;51.148;16.932;2023-05-07T10:51:32;4.85;;;3.75;;
45893;SDS011;31603;51.148;16.932;2023-05-07T10:54:18;5.88;;;4.55;;
45893;SDS011;31603;51.148;16.932;2023-05-07T10:56:44;6.55;;;4.32;;
45893;SDS011;31603;51.148;16.932;2023-05-07T10:59:31;7.80;;;4.15;;
45893;SDS011;31603;51.148;16.932;2023-05-07T11:01:59;4.72;;;3.60;;
45893;SDS011;31603;51.148;16.932;2023-05-07T11:04:29;7.70;;;4.47;;
45893;SDS011;31603;51.148;16.932;2023-05-07T11:09:27;4.65;;;3.83;;
45893;SDS011;31603;51.148;16.932;2023-05-07T11:12:13;4.78;;;3.70;;
45893;SDS011;31603;51.148;16.932;2023-05-07T11:14:43;5.63;;;3.70;;
45893;SDS011;31603;51.148;16.932;2023-05-07T11:17:09;5.15;;;3.15;;
45893;SDS011;31603;51.148;16.932;2023-05-07T11:19:52;5.47;;;3.88;;
45893;SDS011;31603;51.148;16.932;2023-05-07T11:22:36;6.03;;;3.85;;
45893;SDS011;31603;51.148;16.932;2023-05-07T11:25:05;6.03;;;4.22;;
45893;SDS011;31603;51.148;16.932;2023-05-07T11:27:31;5.57;;;4.32;;
45893;SDS011;31603;51.148;16.932;2023-05-07T11:29:58;6.55;;;3.92;;
45893;SDS011;31603;51.148;16.932;2023-05-07T11:32:26;5.03;;;3.78;;
45893;SDS011;31603;51.148;16.932;2023-05-07T11:34:54;5.13;;;3.65;;
45893;SDS011;31603;51.148;16.932;2023-05-07T11:37:21;4.97;;;3.63;;
45893;SDS011;31603;51.148;16.932;2023-05-07T11:39:48;4.57;;;3.88;;
45893;SDS011;31603;51.148;16.932;2023-05-07T11:42:24;3.97;;;3.30;;
45893;SDS011;31603;51.148;16.932;2023-05-07T11:44:51;4.97;;;3.60;;
45893;SDS011;31603;51.148;16.932;2023-05-07T11:47:17;5.00;;;3.65;;
45893;SDS011;31603;51.148;16.932;2023-05-07T11:49:45;5.88;;;4.22;;
45893;SDS011;31603;51.148;16.932;2023-05-07T11:52:14;4.68;;;3.70;;
45893;SDS011;31603;51.148;16.932;2023-05-07T11:54:40;3.88;;;3.47;;
45893;SDS011;31603;51.148;16.932;2023-05-07T11:57:06;4.35;;;3.28;;
45893;SDS011;31603;51.148;16.932;2023-05-07T11:59:40;4.68;;;3.33;;
45893;SDS011;31603;51.148;16.932;2023-05-07T12:02:06;5.15;;;3.67;;
45893;SDS011;31603;51.148;16.932;2023-05-07T12:04:32;6.15;;;3.67;;
45893;SDS011;31603;51.148;16.932;2023-05-07T12:06:58;3.60;;;3.00;;
45893;SDS011;31603;51.148;16.932;2023-05-07T12:09:26;4.07;;;3.30;;
45893;SDS011;31603;51.148;16.932;2023-05-07T12:11:53;4.35;;;3.10;;
45893;SDS011;31603;51.148;16.932;2023-05-07T12:14:21;4.50;;;3.20;;
45893;SDS011;31603;51.148;16.932;2023-05-07T12:16:47;4.43;;;3.08;;
45893;SDS011;31603;51.148;16.932;2023-05-07T12:19:13;4.93;;;3.40;;
45893;SDS011;31603;51.148;16.932;2023-05-07T12:21:40;6.00;;;3.50;;
45893;SDS011;31603;51.148;16.932;2023-05-07T12:24:07;3.95;;;3.42;;
45893;SDS011;31603;51.148;16.932;2023-05-07T12:26:38;3.55;;;2.97;;
45893;SDS011;31603;51.148;16.932;2023-05-07T12:29:05;4.57;;;3.45;;
45893;SDS011;31603;51.148;16.932;2023-05-07T12:31:31;5.40;;;3.25;;
45893;SDS011;31603;51.148;16.932;2023-05-07T12:33:58;4.50;;;3.65;;
45893;SDS011;31603;51.148;16.932;2023-05-07T12:36:24;5.00;;;4.43;;
45893;SDS011;31603;51.148;16.932;2023-05-07T12:38:50;8.15;;;5.75;;
45893;SDS011;31603;51.148;16.932;2023-05-07T12:41:17;7.13;;;3.65;;
45893;SDS011;31603;51.148;16.932;2023-05-07T12:43:44;6.38;;;3.55;;
45893;SDS011;31603;51.148;16.932;2023-05-07T12:46:11;4.95;;;3.70;;
45893;SDS011;31603;51.148;16.932;2023-05-07T12:48:41;4.75;;;3.60;;
45893;SDS011;31603;51.148;16.932;2023-05-07T12:51:10;6.40;;;4.78;;
45893;SDS011;31603;51.148;16.932;2023-05-07T12:53:39;4.47;;;3.83;;
45893;SDS011;31603;51.148;16.932;2023-05-07T12:56:06;6.43;;;4.50;;
45893;SDS011;31603;51.148;16.932;2023-05-07T12:58:32;5.30;;;4.10;;
45893;SDS011;31603;51.148;16.932;2023-05-07T13:01:06;5.90;;;4.30;;
45893;SDS011;31603;51.148;16.932;2023-05-07T13:03:35;6.10;;;4.43;;
45893;SDS011;31603;51.148;16.932;2023-05-07T13:06:02;4.60;;;3.58;;
45893;SDS011;31603;51.148;16.932;2023-05-07T13:08:30;5.90;;;4.60;;
45893;SDS011;31603;51.148;16.932;2023-05-07T13:10:57;14.23;;;5.32;;
45893;SDS011;31603;51.148;16.932;2023-05-07T13:13:23;4.80;;;4.05;;
45893;SDS011;31603;51.148;16.932;2023-05-07T13:15:50;5.82;;;4.68;;
45893;SDS011;31603;51.148;16.932;2023-05-07T13:18:17;6.53;;;4.57;;
45893;SDS011;31603;51.148;16.932;2023-05-07T13:20:43;7.15;;;4.82;;
45893;SDS011;31603;51.148;16.932;2023-05-07T13:23:10;5.57;;;4.88;;
45893;SDS011;31603;51.148;16.932;2023-05-07T13:25:36;6.18;;;4.70;;
45893;SDS011;31603;51.148;16.932;2023-05-07T13:28:02;6.20;;;4.53;;
45893;SDS011;31603;51.148;16.932;2023-05-07T13:30:29;5.38;;;4.35;;
45893;SDS011;31603;51.148;16.932;2023-05-07T13:32:55;6.45;;;5.28;;
45893;SDS011;31603;51.148;16.932;2023-05-07T13:35:23;5.90;;;4.63;;
45893;SDS011;31603;51.148;16.932;2023-05-07T13:37:49;5.85;;;4.35;;
45893;SDS011;31603;51.148;16.932;2023-05-07T13:40:17;5.55;;;4.47;;
45893;SDS011;31603;51.148;16.932;2023-05-07T13:42:43;6.55;;;5.50;;
45893;SDS011;31603;51.148;16.932;2023-05-07T13:45:09;8.05;;;6.07;;
45893;SDS011;31603;51.148;16.932;2023-05-07T13:47:38;7.35;;;5.68;;
45893;SDS011;31603;51.148;16.932;2023-05-07T13:50:05;7.47;;;5.13;;
45893;SDS011;31603;51.148;16.932;2023-05-07T13:52:33;6.35;;;5.25;;
45893;SDS011;31603;51.148;16.932;2023-05-07T13:54:59;4.78;;;4.07;;
45893;SDS011;31603;51.148;16.932;2023-05-07T13:57:26;5.03;;;4.18;;
45893;SDS011;31603;51.148;16.932;2023-05-07T13:59:52;5.22;;;4.35;;
45893;SDS011;31603;51.148;16.932;2023-05-07T14:02:18;5.95;;;4.82;;
45893;SDS011;31603;51.148;16.932;2023-05-07T14:04:44;6.15;;;4.70;;
45893;SDS011;31603;51.148;16.932;2023-05-07T14:07:11;5.80;;;5.10;;
45893;SDS011;31603;51.148;16.932;2023-05-07T14:09:38;7.22;;;4.53;;
45893;SDS011;31603;51.148;16.932;2023-05-07T14:12:05;5.35;;;4.40;;
45893;SDS011;31603;51.148;16.932;2023-05-07T14:14:31;5.35;;;3.90;;
45893;SDS011;31603;51.148;16.932;2023-05-07T14:16:58;4.93;;;3.80;;
45893;SDS011;31603;51.148;16.932;2023-05-07T14:19:24;5.60;;;3.90;;
45893;SDS011;31603;51.148;16.932;2023-05-07T14:21:50;5.75;;;4.22;;
45893;SDS011;31603;51.148;16.932;2023-05-07T14:24:16;4.22;;;2.97;;
45893;SDS011;31603;51.148;16.932;2023-05-07T14:26:44;4.28;;;3.45;;
45893;SDS011;31603;51.148;16.932;2023-05-07T14:29:11;4.97;;;3.70;;
45893;SDS011;31603;51.148;16.932;2023-05-07T14:31:37;5.88;;;4.15;;
45893;SDS011;31603;51.148;16.932;2023-05-07T14:34:04;9.07;;;3.50;;
45893;SDS011;31603;51.148;16.932;2023-05-07T14:36:30;7.15;;;3.83;;
45893;SDS011;31603;51.148;16.932;2023-05-07T14:38:56;5.15;;;3.70;;
45893;SDS011;31603;51.148;16.932;2023-05-07T14:41:24;5.68;;;4.15;;
45893;SDS011;31603;51.148;16.932;2023-05-07T14:43:51;4.60;;;3.47;;
45893;SDS011;31603;51.148;16.932;2023-05-07T14:46:18;4.75;;;3.50;;
45893;SDS011;31603;51.148;16.932;2023-05-07T14:48:44;7.18;;;4.32;;
45893;SDS011;31603;51.148;16.932;2023-05-07T14:51:11;5.13;;;3.92;;
45893;SDS011;31603;51.148;16.932;2023-05-07T14:53:37;5.43;;;3.75;;
45893;SDS011;31603;51.148;16.932;2023-05-07T14:56:04;5.25;;;3.92;;
45893;SDS011;31603;51.148;16.932;2023-05-07T14:58:30;6.85;;;4.65;;
45893;SDS011;31603;51.148;16.932;2023-05-07T15:00:58;5.63;;;3.85;;
45893;SDS011;31603;51.148;16.932;2023-05-07T15:03:24;5.25;;;3.50;;
45893;SDS011;31603;51.148;16.932;2023-05-07T15:05:50;6.50;;;3.83;;
45893;SDS011;31603;51.148;16.932;2023-05-07T15:08:17;5.20;;;3.47;;
45893;SDS011;31603;51.148;16.932;2023-05-07T15:10:43;5.00;;;3.90;;
45893;SDS011;31603;51.148;16.932;2023-05-07T15:13:10;6.30;;;4.07;;
45893;SDS011;31603;51.148;16.932;2023-05-07T15:15:37;5.15;;;3.92;;
45893;SDS011;31603;51.148;16.932;2023-05-07T15:18:05;8.25;;;4.68;;